sensor_id;sensor_type;location;lat;lon;timestamp;P1;P2;P0
76679;PMS5003;65597;51.520;-0.224;2023-09-12T00:00:21;9;8;
76679;PMS5003;65597;51.520;-0.224;2023-09-12T00:02:46;9;9;
76679;PMS5003;65597;51.520;-0.224;2023-09-12T00:05:11;9;7;
76679;PMS5003;65597;51.520;-0.224;2023-09-12T00:07:38;7;7;
76679;PMS5003;65597;51.520;-0.224;2023-09-12T00:10:02;8;8;
76679;PMS5003;65597;51.520;-0.224;2023-09-12T00:12:27;8;6;
76679;PMS5003;65597;51.520;-0.224;2023-09-12T00:14:54;9;8;
76679;PMS5003;65597;51.520;-0.224;2023-09-12T00:17:18;7;7;
76679;PMS5003;65597;51.520;-0.224;2023-09-12T00:19:43;9;9;
76679;PMS5003;65597;51.520;-0.224;2023-09-12T00:22:08;9;8;
76679;PMS5003;65597;51.520;-0.224;2023-09-12T00:24:34;8;8;
76679;PMS5003;65597;51.520;-0.224;2023-09-12T00:27:00;10;7;
76679;PMS5003;65597;51.520;-0.224;2023-09-12T00:29:24;5;5;
76679;PMS5003;65597;51.520;-0.224;2023-09-12T00:31:50;9;9;
76679;PMS5003;65597;51.520;-0.224;2023-09-12T00:34:16;8;8;
76679;PMS5003;65597;51.520;-0.224;2023-09-12T00:36:41;9;8;
76679;PMS5003;65597;51.520;-0.224;2023-09-12T00:39:06;8;8;
76679;PMS5003;65597;51.520;-0.224;2023-09-12T00:41:31;10;10;
76679;PMS5003;65597;51.520;-0.224;2023-09-12T00:43:57;7;7;
76679;PMS5003;65597;51.520;-0.224;2023-09-12T00:46:22;9;8;
76679;PMS5003;65597;51.520;-0.224;2023-09-12T00:48:47;9;9;
76679;PMS5003;65597;51.520;-0.224;2023-09-12T00:51:13;9;8;
76679;PMS5003;65597;51.520;-0.224;2023-09-12T00:53:38;10;9;
76679;PMS5003;65597;51.520;-0.224;2023-09-12T00:56:04;7;7;
76679;PMS5003;65597;51.520;-0.224;2023-09-12T00:58:29;8;7;
76679;PMS5003;65597;51.520;-0.224;2023-09-12T01:00:55;8;8;
76679;PMS5003;65597;51.520;-0.224;2023-09-12T01:03:21;6;5;
76679;PMS5003;65597;51.520;-0.224;2023-09-12T01:05:45;6;6;
76679;PMS5003;65597;51.520;-0.224;2023-09-12T01:08:10;8;7;
76679;PMS5003;65597;51.520;-0.224;2023-09-12T01:10:35;6;6;
76679;PMS5003;65597;51.520;-0.224;2023-09-12T01:13:01;6;6;
76679;PMS5003;65597;51.520;-0.224;2023-09-12T01:15:27;6;6;
76679;PMS5003;65597;51.520;-0.224;2023-09-12T01:17:51;8;8;
76679;PMS5003;65597;51.520;-0.224;2023-09-12T01:20:18;9;5;
76679;PMS5003;65597;51.520;-0.224;2023-09-12T01:22:49;7;7;
76679;PMS5003;65597;51.520;-0.224;2023-09-12T01:25:13;9;7;
76679;PMS5003;65597;51.520;-0.224;2023-09-12T01:27:33;8;8;
76679;PMS5003;65597;51.520;-0.224;2023-09-12T01:29:59;6;6;
76679;PMS5003;65597;51.520;-0.224;2023-09-12T01:32:24;9;8;
76679;PMS5003;65597;51.520;-0.224;2023-09-12T01:34:49;7;6;
76679;PMS5003;65597;51.520;-0.224;2023-09-12T01:37:14;6;6;
76679;PMS5003;65597;51.520;-0.224;2023-09-12T01:39:40;7;7;
76679;PMS5003;65597;51.520;-0.224;2023-09-12T01:42:05;5;5;
76679;PMS5003;65597;51.520;-0.224;2023-09-12T01:44:30;7;7;
76679;PMS5003;65597;51.520;-0.224;2023-09-12T01:46:56;6;5;
76679;PMS5003;65597;51.520;-0.224;2023-09-12T01:49:22;11;7;
76679;PMS5003;65597;51.520;-0.224;2023-09-12T01:51:47;7;7;
76679;PMS5003;65597;51.520;-0.224;2023-09-12T01:54:12;8;8;
76679;PMS5003;65597;51.520;-0.224;2023-09-12T01:56:38;8;6;
76679;PMS5003;65597;51.520;-0.224;2023-09-12T01:59:03;6;6;
76679;PMS5003;65597;51.520;-0.224;2023-09-12T02:01:28;7;7;
76679;PMS5003;65597;51.520;-0.224;2023-09-12T02:03:54;7;7;
76679;PMS5003;65597;51.520;-0.224;2023-09-12T02:06:19;9;8;
76679;PMS5003;65597;51.520;-0.224;2023-09-12T02:08:49;6;5;
76679;PMS5003;65597;51.520;-0.224;2023-09-12T02:11:09;6;6;
76679;PMS5003;65597;51.520;-0.224;2023-09-12T02:13:35;7;7;
76679;PMS5003;65597;51.520;-0.224;2023-09-12T02:16:02;8;8;
76679;PMS5003;65597;51.520;-0.224;2023-09-12T02:18:26;6;6;
76679;PMS5003;65597;51.520;-0.224;2023-09-12T02:20:51;5;5;
76679;PMS5003;65597;51.520;-0.224;2023-09-12T02:23:16;6;6;
76679;PMS5003;65597;51.520;-0.224;2023-09-12T02:25:41;7;7;
76679;PMS5003;65597;51.520;-0.224;2023-09-12T02:28:08;6;5;
76679;PMS5003;65597;51.520;-0.224;2023-09-12T02:30:33;11;8;
76679;PMS5003;65597;51.520;-0.224;2023-09-12T02:32:58;6;6;
76679;PMS5003;65597;51.520;-0.224;2023-09-12T02:35:23;6;6;
76679;PMS5003;65597;51.520;-0.224;2023-09-12T02:37:49;6;6;
76679;PMS5003;65597;51.520;-0.224;2023-09-12T02:40:14;7;6;
76679;PMS5003;65597;51.520;-0.224;2023-09-12T02:42:39;6;6;
76679;PMS5003;65597;51.520;-0.224;2023-09-12T02:45:05;5;4;
76679;PMS5003;65597;51.520;-0.224;2023-09-12T02:47:30;7;5;
76679;PMS5003;65597;51.520;-0.224;2023-09-12T02:49:55;7;6;
76679;PMS5003;65597;51.520;-0.224;2023-09-12T02:52:21;7;7;
76679;PMS5003;65597;51.520;-0.224;2023-09-12T02:54:46;10;10;
76679;PMS5003;65597;51.520;-0.224;2023-09-12T02:57:11;7;7;
76679;PMS5003;65597;51.520;-0.224;2023-09-12T02:59:36;8;8;
76679;PMS5003;65597;51.520;-0.224;2023-09-12T03:02:02;8;7;
76679;PMS5003;65597;51.520;-0.224;2023-09-12T03:04:27;9;6;
76679;PMS5003;65597;51.520;-0.224;2023-09-12T03:06:52;8;7;
76679;PMS5003;65597;51.520;-0.224;2023-09-12T03:09:17;8;7;
76679;PMS5003;65597;51.520;-0.224;2023-09-12T03:11:43;11;10;
76679;PMS5003;65597;51.520;-0.224;2023-09-12T03:14:08;10;9;
76679;PMS5003;65597;51.520;-0.224;2023-09-12T03:16:36;8;8;
76679;PMS5003;65597;51.520;-0.224;2023-09-12T03:18:59;13;11;
76679;PMS5003;65597;51.520;-0.224;2023-09-12T03:21:24;11;10;
76679;PMS5003;65597;51.520;-0.224;2023-09-12T03:23:50;12;11;
76679;PMS5003;65597;51.520;-0.224;2023-09-12T03:26:15;9;8;
76679;PMS5003;65597;51.520;-0.224;2023-09-12T03:28:40;8;8;
76679;PMS5003;65597;51.520;-0.224;2023-09-12T03:31:06;7;7;
76679;PMS5003;65597;51.520;-0.224;2023-09-12T03:33:31;8;8;
76679;PMS5003;65597;51.520;-0.224;2023-09-12T03:35:56;11;10;
76679;PMS5003;65597;51.520;-0.224;2023-09-12T03:38:21;10;10;
76679;PMS5003;65597;51.520;-0.224;2023-09-12T03:40:47;8;8;
76679;PMS5003;65597;51.520;-0.224;2023-09-12T03:43:12;12;8;
76679;PMS5003;65597;51.520;-0.224;2023-09-12T03:45:37;10;10;
76679;PMS5003;65597;51.520;-0.224;2023-09-12T03:48:03;9;9;
76679;PMS5003;65597;51.520;-0.224;2023-09-12T03:50:28;6;6;
76679;PMS5003;65597;51.520;-0.224;2023-09-12T03:52:55;14;11;
76679;PMS5003;65597;51.520;-0.224;2023-09-12T03:55:19;10;9;
76679;PMS5003;65597;51.520;-0.224;2023-09-12T03:57:44;9;9;
76679;PMS5003;65597;51.520;-0.224;2023-09-12T04:00:10;10;10;
76679;PMS5003;65597;51.520;-0.224;2023-09-12T04:02:34;12;12;
76679;PMS5003;65597;51.520;-0.224;2023-09-12T04:05:01;9;9;
76679;PMS5003;65597;51.520;-0.224;2023-09-12T04:07:25;10;9;
76679;PMS5003;65597;51.520;-0.224;2023-09-12T04:09:50;10;9;
76679;PMS5003;65597;51.520;-0.224;2023-09-12T04:12:16;10;9;
76679;PMS5003;65597;51.520;-0.224;2023-09-12T04:14:41;10;10;
76679;PMS5003;65597;51.520;-0.224;2023-09-12T04:17:08;9;9;
76679;PMS5003;65597;51.520;-0.224;2023-09-12T04:19:32;9;9;
76679;PMS5003;65597;51.520;-0.224;2023-09-12T04:21:57;12;8;
76679;PMS5003;65597;51.520;-0.224;2023-09-12T04:24:22;8;8;
76679;PMS5003;65597;51.520;-0.224;2023-09-12T04:26:48;7;7;
76679;PMS5003;65597;51.520;-0.224;2023-09-12T04:29:14;11;10;
76679;PMS5003;65597;51.520;-0.224;2023-09-12T04:31:38;8;6;
76679;PMS5003;65597;51.520;-0.224;2023-09-12T04:34:03;10;8;
76679;PMS5003;65597;51.520;-0.224;2023-09-12T04:36:29;9;8;
76679;PMS5003;65597;51.520;-0.224;2023-09-12T04:38:54;8;8;
76679;PMS5003;65597;51.520;-0.224;2023-09-12T04:41:21;9;9;
76679;PMS5003;65597;51.520;-0.224;2023-09-12T04:43:45;11;9;
76679;PMS5003;65597;51.520;-0.224;2023-09-12T04:46:10;9;8;
76679;PMS5003;65597;51.520;-0.224;2023-09-12T04:48:35;9;7;
76679;PMS5003;65597;51.520;-0.224;2023-09-12T04:51:00;8;7;
76679;PMS5003;65597;51.520;-0.224;2023-09-12T04:53:26;9;8;
76679;PMS5003;65597;51.520;-0.224;2023-09-12T04:55:52;7;7;
76679;PMS5003;65597;51.520;-0.224;2023-09-12T04:58:17;8;8;
76679;PMS5003;65597;51.520;-0.224;2023-09-12T05:00:43;10;8;
76679;PMS5003;65597;51.520;-0.224;2023-09-12T05:03:08;7;7;
76679;PMS5003;65597;51.520;-0.224;2023-09-12T05:05:35;9;8;
76679;PMS5003;65597;51.520;-0.224;2023-09-12T05:07:59;7;7;
76679;PMS5003;65597;51.520;-0.224;2023-09-12T05:10:24;9;8;
76679;PMS5003;65597;51.520;-0.224;2023-09-12T05:12:49;8;8;
76679;PMS5003;65597;51.520;-0.224;2023-09-12T05:15:15;7;7;
76679;PMS5003;65597;51.520;-0.224;2023-09-12T05:17:40;7;7;
76679;PMS5003;65597;51.520;-0.224;2023-09-12T05:20:06;9;8;
76679;PMS5003;65597;51.520;-0.224;2023-09-12T05:22:31;8;7;
76679;PMS5003;65597;51.520;-0.224;2023-09-12T05:24:56;11;10;
76679;PMS5003;65597;51.520;-0.224;2023-09-12T05:27:22;11;9;
76679;PMS5003;65597;51.520;-0.224;2023-09-12T05:29:47;11;9;
76679;PMS5003;65597;51.520;-0.224;2023-09-12T05:32:13;10;10;
76679;PMS5003;65597;51.520;-0.224;2023-09-12T05:34:38;13;10;
76679;PMS5003;65597;51.520;-0.224;2023-09-12T05:37:04;9;9;
76679;PMS5003;65597;51.520;-0.224;2023-09-12T05:39:29;10;9;
76679;PMS5003;65597;51.520;-0.224;2023-09-12T05:41:56;9;7;
76679;PMS5003;65597;51.520;-0.224;2023-09-12T05:44:20;9;9;
76679;PMS5003;65597;51.520;-0.224;2023-09-12T05:46:46;8;8;
76679;PMS5003;65597;51.520;-0.224;2023-09-12T05:49:11;9;8;
76679;PMS5003;65597;51.520;-0.224;2023-09-12T05:51:36;6;6;
76679;PMS5003;65597;51.520;-0.224;2023-09-12T05:54:03;7;6;
76679;PMS5003;65597;51.520;-0.224;2023-09-12T05:56:27;6;5;
76679;PMS5003;65597;51.520;-0.224;2023-09-12T05:58:52;7;6;
76679;PMS5003;65597;51.520;-0.224;2023-09-12T06:01:17;7;7;
76679;PMS5003;65597;51.520;-0.224;2023-09-12T06:03:43;8;8;
76679;PMS5003;65597;51.520;-0.224;2023-09-12T06:06:10;9;6;
76679;PMS5003;65597;51.520;-0.224;2023-09-12T06:08:34;8;7;
76679;PMS5003;65597;51.520;-0.224;2023-09-12T06:10:59;8;8;
76679;PMS5003;65597;51.520;-0.224;2023-09-12T06:13:24;5;5;
76679;PMS5003;65597;51.520;-0.224;2023-09-12T06:15:50;8;7;
76679;PMS5003;65597;51.520;-0.224;2023-09-12T06:18:15;5;5;
76679;PMS5003;65597;51.520;-0.224;2023-09-12T06:20:40;8;7;
76679;PMS5003;65597;51.520;-0.224;2023-09-12T06:23:05;8;6;
76679;PMS5003;65597;51.520;-0.224;2023-09-12T06:25:31;8;7;
76679;PMS5003;65597;51.520;-0.224;2023-09-12T06:27:56;7;7;
76679;PMS5003;65597;51.520;-0.224;2023-09-12T06:30:21;5;5;
76679;PMS5003;65597;51.520;-0.224;2023-09-12T06:32:47;7;7;
76679;PMS5003;65597;51.520;-0.224;2023-09-12T06:35:12;8;8;
76679;PMS5003;65597;51.520;-0.224;2023-09-12T06:37:37;5;5;
76679;PMS5003;65597;51.520;-0.224;2023-09-12T06:40:03;6;6;
76679;PMS5003;65597;51.520;-0.224;2023-09-12T06:42:29;7;7;
76679;PMS5003;65597;51.520;-0.224;2023-09-12T06:44:53;8;7;
76679;PMS5003;65597;51.520;-0.224;2023-09-12T06:47:18;4;3;
76679;PMS5003;65597;51.520;-0.224;2023-09-12T06:49:44;6;5;
76679;PMS5003;65597;51.520;-0.224;2023-09-12T06:52:09;8;8;
76679;PMS5003;65597;51.520;-0.224;2023-09-12T06:54:36;7;6;
76679;PMS5003;65597;51.520;-0.224;2023-09-12T06:57:00;6;6;
76679;PMS5003;65597;51.520;-0.224;2023-09-12T06:59:25;7;7;
76679;PMS5003;65597;51.520;-0.224;2023-09-12T07:01:50;10;8;
76679;PMS5003;65597;51.520;-0.224;2023-09-12T07:04:16;5;5;
76679;PMS5003;65597;51.520;-0.224;2023-09-12T07:06:41;6;6;
76679;PMS5003;65597;51.520;-0.224;2023-09-12T07:09:07;10;7;
76679;PMS5003;65597;51.520;-0.224;2023-09-12T07:11:32;9;7;
76679;PMS5003;65597;51.520;-0.224;2023-09-12T07:13:57;7;7;
76679;PMS5003;65597;51.520;-0.224;2023-09-12T07:16:23;9;8;
76679;PMS5003;65597;51.520;-0.224;2023-09-12T07:18:48;9;9;
76679;PMS5003;65597;51.520;-0.224;2023-09-12T07:21:14;6;6;
76679;PMS5003;65597;51.520;-0.224;2023-09-12T07:23:39;7;7;
76679;PMS5003;65597;51.520;-0.224;2023-09-12T07:26:04;5;5;
76679;PMS5003;65597;51.520;-0.224;2023-09-12T07:28:30;8;6;
76679;PMS5003;65597;51.520;-0.224;2023-09-12T07:30:56;8;7;
76679;PMS5003;65597;51.520;-0.224;2023-09-12T07:33:20;6;6;
76679;PMS5003;65597;51.520;-0.224;2023-09-12T07:35:46;5;5;
76679;PMS5003;65597;51.520;-0.224;2023-09-12T07:38:11;7;7;
76679;PMS5003;65597;51.520;-0.224;2023-09-12T07:40:36;7;7;
76679;PMS5003;65597;51.520;-0.224;2023-09-12T07:43:04;6;6;
76679;PMS5003;65597;51.520;-0.224;2023-09-12T07:45:27;7;6;
76679;PMS5003;65597;51.520;-0.224;2023-09-12T07:47:52;8;7;
76679;PMS5003;65597;51.520;-0.224;2023-09-12T07:50:18;7;7;
76679;PMS5003;65597;51.520;-0.224;2023-09-12T07:52:43;7;7;
76679;PMS5003;65597;51.520;-0.224;2023-09-12T07:55:09;8;6;
76679;PMS5003;65597;51.520;-0.224;2023-09-12T07:57:34;6;6;
76679;PMS5003;65597;51.520;-0.224;2023-09-12T07:59:59;7;7;
76679;PMS5003;65597;51.520;-0.224;2023-09-12T08:02:24;9;9;
76679;PMS5003;65597;51.520;-0.224;2023-09-12T08:04:50;7;7;
76679;PMS5003;65597;51.520;-0.224;2023-09-12T08:07:15;9;9;
76679;PMS5003;65597;51.520;-0.224;2023-09-12T08:12:06;8;7;
76679;PMS5003;65597;51.520;-0.224;2023-09-12T08:14:31;9;8;
76679;PMS5003;65597;51.520;-0.224;2023-09-12T08:16:57;8;8;
76679;PMS5003;65597;51.520;-0.224;2023-09-12T08:19:23;9;9;
76679;PMS5003;65597;51.520;-0.224;2023-09-12T08:21:47;7;7;
76679;PMS5003;65597;51.520;-0.224;2023-09-12T08:24:13;8;8;
76679;PMS5003;65597;51.520;-0.224;2023-09-12T08:26:38;9;9;
76679;PMS5003;65597;51.520;-0.224;2023-09-12T08:29:03;10;9;
76679;PMS5003;65597;51.520;-0.224;2023-09-12T08:31:30;8;8;
76679;PMS5003;65597;51.520;-0.224;2023-09-12T08:33:54;11;10;
76679;PMS5003;65597;51.520;-0.224;2023-09-12T08:36:20;13;11;
76679;PMS5003;65597;51.520;-0.224;2023-09-12T08:38:45;9;8;
76679;PMS5003;65597;51.520;-0.224;2023-09-12T08:41:10;11;10;
76679;PMS5003;65597;51.520;-0.224;2023-09-12T08:43:37;10;9;
76679;PMS5003;65597;51.520;-0.224;2023-09-12T08:46:02;10;10;
76679;PMS5003;65597;51.520;-0.224;2023-09-12T08:48:27;12;10;
76679;PMS5003;65597;51.520;-0.224;2023-09-12T08:50:52;9;8;
76679;PMS5003;65597;51.520;-0.224;2023-09-12T08:53:17;9;9;
76679;PMS5003;65597;51.520;-0.224;2023-09-12T08:55:43;12;11;
76679;PMS5003;65597;51.520;-0.224;2023-09-12T08:58:08;14;10;
76679;PMS5003;65597;51.520;-0.224;2023-09-12T09:00:34;9;9;
76679;PMS5003;65597;51.520;-0.224;2023-09-12T09:02:59;18;15;
76679;PMS5003;65597;51.520;-0.224;2023-09-12T09:05:25;10;8;
76679;PMS5003;65597;51.520;-0.224;2023-09-12T09:07:52;9;9;
76679;PMS5003;65597;51.520;-0.224;2023-09-12T09:10:16;10;10;
76679;PMS5003;65597;51.520;-0.224;2023-09-12T09:12:42;10;8;
76679;PMS5003;65597;51.520;-0.224;2023-09-12T09:17:32;11;10;
76679;PMS5003;65597;51.520;-0.224;2023-09-12T09:19:59;9;8;
76679;PMS5003;65597;51.520;-0.224;2023-09-12T09:22:22;7;7;
76679;PMS5003;65597;51.520;-0.224;2023-09-12T09:24:48;8;8;
76679;PMS5003;65597;51.520;-0.224;2023-09-12T09:27:16;10;10;
76679;PMS5003;65597;51.520;-0.224;2023-09-12T09:32:05;8;8;
76679;PMS5003;65597;51.520;-0.224;2023-09-12T09:34:29;11;8;
76679;PMS5003;65597;51.520;-0.224;2023-09-12T09:36:55;10;10;
76679;PMS5003;65597;51.520;-0.224;2023-09-12T09:39:21;7;7;
76679;PMS5003;65597;51.520;-0.224;2023-09-12T09:41:47;7;6;
76679;PMS5003;65597;51.520;-0.224;2023-09-12T09:44:11;5;5;
76679;PMS5003;65597;51.520;-0.224;2023-09-12T09:46:37;5;5;
76679;PMS5003;65597;51.520;-0.224;2023-09-12T09:49:02;5;5;
76679;PMS5003;65597;51.520;-0.224;2023-09-12T09:51:27;5;5;
76679;PMS5003;65597;51.520;-0.224;2023-09-12T09:53:53;6;6;
76679;PMS5003;65597;51.520;-0.224;2023-09-12T09:56:19;4;4;
76679;PMS5003;65597;51.520;-0.224;2023-09-12T09:58:46;5;5;
76679;PMS5003;65597;51.520;-0.224;2023-09-12T10:01:08;7;6;
76679;PMS5003;65597;51.520;-0.224;2023-09-12T10:03:34;7;5;
76679;PMS5003;65597;51.520;-0.224;2023-09-12T10:05:59;6;6;
76679;PMS5003;65597;51.520;-0.224;2023-09-12T10:08:24;8;7;
76679;PMS5003;65597;51.520;-0.224;2023-09-12T10:10:49;5;3;
76679;PMS5003;65597;51.520;-0.224;2023-09-12T10:13:14;8;7;
76679;PMS5003;65597;51.520;-0.224;2023-09-12T10:15:40;7;6;
76679;PMS5003;65597;51.520;-0.224;2023-09-12T10:18:07;7;6;
76679;PMS5003;65597;51.520;-0.224;2023-09-12T10:20:33;5;5;
76679;PMS5003;65597;51.520;-0.224;2023-09-12T10:22:59;6;5;
76679;PMS5003;65597;51.520;-0.224;2023-09-12T10:25:21;6;4;
76679;PMS5003;65597;51.520;-0.224;2023-09-12T10:27:46;5;5;
76679;PMS5003;65597;51.520;-0.224;2023-09-12T10:30:12;4;4;
76679;PMS5003;65597;51.520;-0.224;2023-09-12T10:32:37;6;6;
76679;PMS5003;65597;51.520;-0.224;2023-09-12T10:35:02;5;4;
76679;PMS5003;65597;51.520;-0.224;2023-09-12T10:37:27;4;3;
76679;PMS5003;65597;51.520;-0.224;2023-09-12T10:39:53;4;4;
76679;PMS5003;65597;51.520;-0.224;2023-09-12T10:42:18;5;4;
76679;PMS5003;65597;51.520;-0.224;2023-09-12T10:44:46;3;3;
76679;PMS5003;65597;51.520;-0.224;2023-09-12T10:47:09;6;5;
76679;PMS5003;65597;51.520;-0.224;2023-09-12T10:49:34;3;3;
76679;PMS5003;65597;51.520;-0.224;2023-09-12T10:51:59;4;3;
76679;PMS5003;65597;51.520;-0.224;2023-09-12T10:54:25;5;5;
76679;PMS5003;65597;51.520;-0.224;2023-09-12T10:59:15;3;3;
76679;PMS5003;65597;51.520;-0.224;2023-09-12T11:01:41;4;3;
76679;PMS5003;65597;51.520;-0.224;2023-09-12T11:06:31;4;4;
76679;PMS5003;65597;51.520;-0.224;2023-09-12T11:11:21;3;3;
76679;PMS5003;65597;51.520;-0.224;2023-09-12T11:13:47;5;5;
76679;PMS5003;65597;51.520;-0.224;2023-09-12T11:16:12;4;3;
76679;PMS5003;65597;51.520;-0.224;2023-09-12T11:21:03;4;4;
76679;PMS5003;65597;51.520;-0.224;2023-09-12T11:23:28;6;6;
76679;PMS5003;65597;51.520;-0.224;2023-09-12T11:28:18;5;4;
76679;PMS5003;65597;51.520;-0.224;2023-09-12T11:33:10;5;4;
76679;PMS5003;65597;51.520;-0.224;2023-09-12T11:35:36;7;4;
76679;PMS5003;65597;51.520;-0.224;2023-09-12T11:38:00;4;4;
76679;PMS5003;65597;51.520;-0.224;2023-09-12T11:40:41;3;3;
76679;PMS5003;65597;51.520;-0.224;2023-09-12T11:42:50;4;4;
76679;PMS5003;65597;51.520;-0.224;2023-09-12T11:45:17;4;3;
76679;PMS5003;65597;51.520;-0.224;2023-09-12T11:47:41;2;2;
76679;PMS5003;65597;51.520;-0.224;2023-09-12T11:50:06;4;4;
76679;PMS5003;65597;51.520;-0.224;2023-09-12T11:52:35;3;3;
76679;PMS5003;65597;51.520;-0.224;2023-09-12T11:54:57;4;4;
76679;PMS5003;65597;51.520;-0.224;2023-09-12T11:57:23;3;3;
76679;PMS5003;65597;51.520;-0.224;2023-09-12T11:59:48;5;5;
76679;PMS5003;65597;51.520;-0.224;2023-09-12T12:02:13;3;3;
76679;PMS5003;65597;51.520;-0.224;2023-09-12T12:04:38;4;4;
76679;PMS5003;65597;51.520;-0.224;2023-09-12T12:07:03;3;3;
76679;PMS5003;65597;51.520;-0.224;2023-09-12T12:09:28;3;3;
76679;PMS5003;65597;51.520;-0.224;2023-09-12T12:11:53;4;4;
76679;PMS5003;65597;51.520;-0.224;2023-09-12T12:14:19;5;5;
76679;PMS5003;65597;51.520;-0.224;2023-09-12T12:16:44;6;4;
76679;PMS5003;65597;51.520;-0.224;2023-09-12T12:19:10;2;2;
76679;PMS5003;65597;51.520;-0.224;2023-09-12T12:21:35;3;3;
76679;PMS5003;65597;51.520;-0.224;2023-09-12T12:24:00;4;4;
76679;PMS5003;65597;51.520;-0.224;2023-09-12T12:26:26;4;4;
76679;PMS5003;65597;51.520;-0.224;2023-09-12T12:28:51;3;3;
76679;PMS5003;65597;51.520;-0.224;2023-09-12T12:31:16;3;2;
76679;PMS5003;65597;51.520;-0.224;2023-09-12T12:33:47;6;5;
76679;PMS5003;65597;51.520;-0.224;2023-09-12T12:36:07;5;5;
76679;PMS5003;65597;51.520;-0.224;2023-09-12T12:38:33;5;5;
76679;PMS5003;65597;51.520;-0.224;2023-09-12T12:40:57;4;4;
76679;PMS5003;65597;51.520;-0.224;2023-09-12T12:43:22;3;3;
76679;PMS5003;65597;51.520;-0.224;2023-09-12T12:45:52;4;4;
76679;PMS5003;65597;51.520;-0.224;2023-09-12T12:48:12;4;4;
76679;PMS5003;65597;51.520;-0.224;2023-09-12T12:50:38;4;4;
76679;PMS5003;65597;51.520;-0.224;2023-09-12T12:53:03;5;5;
76679;PMS5003;65597;51.520;-0.224;2023-09-12T12:55:28;4;3;
76679;PMS5003;65597;51.520;-0.224;2023-09-12T12:57:54;4;4;
76679;PMS5003;65597;51.520;-0.224;2023-09-12T13:00:19;5;5;
76679;PMS5003;65597;51.520;-0.224;2023-09-12T13:02:44;4;4;
76679;PMS5003;65597;51.520;-0.224;2023-09-12T13:07:36;4;4;
76679;PMS5003;65597;51.520;-0.224;2023-09-12T13:10:01;5;5;
76679;PMS5003;65597;51.520;-0.224;2023-09-12T13:12:26;4;4;
76679;PMS5003;65597;51.520;-0.224;2023-09-12T13:14:51;4;4;
76679;PMS5003;65597;51.520;-0.224;2023-09-12T13:17:17;3;3;
76679;PMS5003;65597;51.520;-0.224;2023-09-12T13:19:42;6;6;
76679;PMS5003;65597;51.520;-0.224;2023-09-12T13:22:07;5;4;
76679;PMS5003;65597;51.520;-0.224;2023-09-12T13:24:32;6;4;
76679;PMS5003;65597;51.520;-0.224;2023-09-12T13:26:58;5;5;
76679;PMS5003;65597;51.520;-0.224;2023-09-12T13:29:24;3;3;
76679;PMS5003;65597;51.520;-0.224;2023-09-12T13:31:49;5;4;
76679;PMS5003;65597;51.520;-0.224;2023-09-12T13:34:15;4;4;
76679;PMS5003;65597;51.520;-0.224;2023-09-12T13:36:39;5;4;
76679;PMS5003;65597;51.520;-0.224;2023-09-12T13:39:04;6;6;
76679;PMS5003;65597;51.520;-0.224;2023-09-12T13:41:30;8;7;
76679;PMS5003;65597;51.520;-0.224;2023-09-12T13:43:55;7;6;
76679;PMS5003;65597;51.520;-0.224;2023-09-12T13:46:23;5;4;
76679;PMS5003;65597;51.520;-0.224;2023-09-12T13:48:46;12;8;
76679;PMS5003;65597;51.520;-0.224;2023-09-12T13:51:11;6;5;
76679;PMS5003;65597;51.520;-0.224;2023-09-12T13:53:37;6;5;
76679;PMS5003;65597;51.520;-0.224;2023-09-12T13:56:02;5;5;
76679;PMS5003;65597;51.520;-0.224;2023-09-12T13:58:27;4;4;
76679;PMS5003;65597;51.520;-0.224;2023-09-12T14:00:53;4;4;
76679;PMS5003;65597;51.520;-0.224;2023-09-12T14:03:18;5;5;
76679;PMS5003;65597;51.520;-0.224;2023-09-12T14:05:43;2;2;
76679;PMS5003;65597;51.520;-0.224;2023-09-12T14:08:08;5;5;
76679;PMS5003;65597;51.520;-0.224;2023-09-12T14:10:35;5;5;
76679;PMS5003;65597;51.520;-0.224;2023-09-12T14:12:59;7;6;
76679;PMS5003;65597;51.520;-0.224;2023-09-12T14:15:24;5;5;
76679;PMS5003;65597;51.520;-0.224;2023-09-12T14:17:50;7;6;
76679;PMS5003;65597;51.520;-0.224;2023-09-12T14:20:15;6;5;
76679;PMS5003;65597;51.520;-0.224;2023-09-12T14:22:41;6;5;
76679;PMS5003;65597;51.520;-0.224;2023-09-12T14:25:06;5;5;
76679;PMS5003;65597;51.520;-0.224;2023-09-12T14:27:31;6;6;
76679;PMS5003;65597;51.520;-0.224;2023-09-12T14:29:57;8;8;
76679;PMS5003;65597;51.520;-0.224;2023-09-12T14:32:22;8;8;
76679;PMS5003;65597;51.520;-0.224;2023-09-12T14:34:49;5;4;
76679;PMS5003;65597;51.520;-0.224;2023-09-12T14:37:13;4;4;
76679;PMS5003;65597;51.520;-0.224;2023-09-12T14:39:38;7;6;
76679;PMS5003;65597;51.520;-0.224;2023-09-12T14:42:03;6;6;
76679;PMS5003;65597;51.520;-0.224;2023-09-12T14:44:28;6;6;
76679;PMS5003;65597;51.520;-0.224;2023-09-12T14:46:54;6;5;
76679;PMS5003;65597;51.520;-0.224;2023-09-12T14:49:19;6;5;
76679;PMS5003;65597;51.520;-0.224;2023-09-12T14:51:44;5;4;
76679;PMS5003;65597;51.520;-0.224;2023-09-12T14:54:11;6;4;
76679;PMS5003;65597;51.520;-0.224;2023-09-12T14:56:35;4;4;
76679;PMS5003;65597;51.520;-0.224;2023-09-12T14:59:00;7;7;
76679;PMS5003;65597;51.520;-0.224;2023-09-12T15:01:25;7;7;
76679;PMS5003;65597;51.520;-0.224;2023-09-12T15:03:51;6;6;
76679;PMS5003;65597;51.520;-0.224;2023-09-12T15:06:16;7;6;
76679;PMS5003;65597;51.520;-0.224;2023-09-12T15:08:41;5;5;
76679;PMS5003;65597;51.520;-0.224;2023-09-12T15:11:08;5;5;
76679;PMS5003;65597;51.520;-0.224;2023-09-12T15:13:32;5;5;
76679;PMS5003;65597;51.520;-0.224;2023-09-12T15:15:57;6;6;
76679;PMS5003;65597;51.520;-0.224;2023-09-12T15:18:22;6;6;
76679;PMS5003;65597;51.520;-0.224;2023-09-12T15:20:48;7;5;
76679;PMS5003;65597;51.520;-0.224;2023-09-12T15:23:14;4;4;
76679;PMS5003;65597;51.520;-0.224;2023-09-12T15:25:38;3;3;
76679;PMS5003;65597;51.520;-0.224;2023-09-12T15:28:04;5;5;
76679;PMS5003;65597;51.520;-0.224;2023-09-12T15:30:29;6;5;
76679;PMS5003;65597;51.520;-0.224;2023-09-12T15:32:54;6;6;
76679;PMS5003;65597;51.520;-0.224;2023-09-12T15:35:20;4;4;
76679;PMS5003;65597;51.520;-0.224;2023-09-12T15:37:45;5;5;
76679;PMS5003;65597;51.520;-0.224;2023-09-12T15:40:10;5;5;
76679;PMS5003;65597;51.520;-0.224;2023-09-12T15:42:35;5;5;
76679;PMS5003;65597;51.520;-0.224;2023-09-12T15:45:01;7;5;
76679;PMS5003;65597;51.520;-0.224;2023-09-12T15:47:28;5;4;
76679;PMS5003;65597;51.520;-0.224;2023-09-12T15:49:52;4;4;
76679;PMS5003;65597;51.520;-0.224;2023-09-12T15:52:17;4;3;
76679;PMS5003;65597;51.520;-0.224;2023-09-12T15:54:42;5;5;
76679;PMS5003;65597;51.520;-0.224;2023-09-12T15:57:08;5;5;
76679;PMS5003;65597;51.520;-0.224;2023-09-12T15:59:33;5;5;
76679;PMS5003;65597;51.520;-0.224;2023-09-12T16:01:58;6;6;
76679;PMS5003;65597;51.520;-0.224;2023-09-12T16:04:24;5;4;
76679;PMS5003;65597;51.520;-0.224;2023-09-12T16:06:49;5;4;
76679;PMS5003;65597;51.520;-0.224;2023-09-12T16:09:14;5;5;
76679;PMS5003;65597;51.520;-0.224;2023-09-12T16:11:40;5;5;
76679;PMS5003;65597;51.520;-0.224;2023-09-12T16:14:05;5;5;
76679;PMS5003;65597;51.520;-0.224;2023-09-12T16:16:30;5;5;
76679;PMS5003;65597;51.520;-0.224;2023-09-12T16:18:55;3;2;
76679;PMS5003;65597;51.520;-0.224;2023-09-12T16:21:21;5;5;
76679;PMS5003;65597;51.520;-0.224;2023-09-12T16:23:47;6;5;
76679;PMS5003;65597;51.520;-0.224;2023-09-12T16:26:12;6;6;
76679;PMS5003;65597;51.520;-0.224;2023-09-12T16:28:37;10;8;
76679;PMS5003;65597;51.520;-0.224;2023-09-12T16:31:02;5;5;
76679;PMS5003;65597;51.520;-0.224;2023-09-12T16:33:28;4;4;
76679;PMS5003;65597;51.520;-0.224;2023-09-12T16:35:55;10;9;
76679;PMS5003;65597;51.520;-0.224;2023-09-12T16:38:19;8;8;
76679;PMS5003;65597;51.520;-0.224;2023-09-12T16:40:45;6;6;